createdAt,value
2019-03-15T00:00:02.043Z,2.13
2019-03-15T00:06:48.559Z,2.50
2019-03-15T00:13:34.242Z,2.50
2019-03-15T00:20:19.411Z,2.67
2019-03-15T00:27:04.383Z,2.67
2019-03-15T00:33:50.634Z,2.50
2019-03-15T00:40:35.581Z,2.40
2019-03-15T00:47:21.155Z,2.70
2019-03-15T00:54:06.518Z,2.40
2019-03-15T01:00:52.225Z,2.20
2019-03-15T01:07:37.148Z,2.17
2019-03-15T01:14:23.049Z,2.13
2019-03-15T01:21:08.226Z,2.67
2019-03-15T01:27:53.066Z,2.20
2019-03-15T01:34:37.918Z,2.30
2019-03-15T01:41:22.831Z,2.30
2019-03-15T01:48:08.042Z,2.57
2019-03-15T01:54:52.887Z,3.20
2019-03-15T02:01:38.907Z,2.37
2019-03-15T02:08:23.971Z,2.27
2019-03-15T02:15:11.169Z,2.03
2019-03-15T02:21:57.271Z,2.57
2019-03-15T02:28:42.410Z,1.60
2019-03-15T02:35:27.259Z,2.37
2019-03-15T02:42:12.693Z,2.20
2019-03-15T02:48:58.774Z,2.00
2019-03-15T02:55:43.904Z,2.10
2019-03-15T03:02:28.754Z,2.00
2019-03-15T03:09:13.747Z,2.50
2019-03-15T03:15:58.667Z,2.03
2019-03-15T03:22:43.515Z,2.80
2019-03-15T03:29:29.434Z,2.63
2019-03-15T03:36:14.289Z,2.53
2019-03-15T03:42:59.223Z,2.98
2019-03-15T03:49:44.466Z,2.83
2019-03-15T03:56:29.387Z,2.30
2019-03-15T04:03:14.379Z,2.30
2019-03-15T04:09:59.260Z,2.67
2019-03-15T04:16:44.150Z,2.70
2019-03-15T04:23:29.007Z,2.50
2019-03-15T04:30:14.385Z,2.57
2019-03-15T04:36:59.232Z,2.63
2019-03-15T04:43:44.203Z,2.70
2019-03-15T04:50:29.315Z,2.43
2019-03-15T04:57:14.159Z,2.83
2019-03-15T05:03:59.259Z,2.33
2019-03-15T05:10:44.704Z,2.63
2019-03-15T05:17:29.679Z,2.47
2019-03-15T05:24:14.618Z,2.93
2019-03-15T05:30:59.635Z,3.00
2019-03-15T05:37:44.569Z,3.87
2019-03-15T05:44:29.467Z,3.50
2019-03-15T05:51:14.390Z,4.30
2019-03-15T05:57:59.248Z,3.60
2019-03-15T06:04:44.174Z,3.57
2019-03-15T06:11:29.032Z,4.13
2019-03-15T06:18:13.956Z,4.37
2019-03-15T06:24:58.872Z,3.50
2019-03-15T06:31:43.719Z,4.00
2019-03-15T06:38:28.616Z,5.07
2019-03-15T06:45:14.668Z,4.80
2019-03-15T06:51:59.583Z,3.87
2019-03-15T06:58:45.222Z,3.57
2019-03-15T07:05:30.637Z,3.70
2019-03-15T07:12:15.527Z,3.00
2019-03-15T07:19:00.439Z,3.43
2019-03-15T07:25:45.297Z,2.90
2019-03-15T07:32:31.072Z,2.20
2019-03-15T07:39:16.203Z,2.03
2019-03-15T07:46:01.063Z,1.83
2019-03-15T07:52:45.911Z,1.70
2019-03-15T07:59:30.754Z,1.80
2019-03-15T08:06:15.603Z,1.30
2019-03-15T08:13:00.452Z,1.00
2019-03-15T08:19:45.457Z,1.20
2019-03-15T08:26:30.500Z,1.50
2019-03-15T08:33:15.796Z,1.50
2019-03-15T08:40:00.775Z,1.33
2019-03-15T08:46:45.619Z,1.50
2019-03-15T08:53:30.458Z,2.33
2019-03-15T09:00:18.874Z,2.17
2019-03-15T09:07:03.798Z,2.00
2019-03-15T09:13:49.288Z,1.30
2019-03-15T09:20:34.470Z,1.70
2019-03-15T09:27:19.323Z,1.57
2019-03-15T09:34:04.164Z,1.83
2019-03-15T09:40:50.251Z,1.70
2019-03-15T09:47:35.095Z,3.53
2019-03-15T09:54:20.227Z,1.93
2019-03-15T10:01:05.588Z,1.90
2019-03-15T10:07:50.663Z,2.33
2019-03-15T10:14:35.502Z,1.90
2019-03-15T10:21:20.351Z,1.90
2019-03-15T10:28:05.475Z,2.00
2019-03-15T10:34:50.332Z,1.70
2019-03-15T10:41:38.107Z,2.03
2019-03-15T10:48:25.522Z,1.53
2019-03-15T10:55:09.282Z,1.63
2019-03-15T11:01:54.443Z,1.80
2019-03-15T11:08:39.300Z,1.73
2019-03-15T11:15:24.151Z,1.30
2019-03-15T11:22:09.103Z,1.30
2019-03-15T11:28:53.963Z,0.70
2019-03-15T11:35:39.864Z,0.80
2019-03-15T11:42:24.710Z,0.70
2019-03-15T11:49:09.571Z,0.90
2019-03-15T11:55:54.547Z,0.80
2019-03-15T12:02:40.888Z,0.97
2019-03-15T12:09:25.818Z,1.10
2019-03-15T12:16:10.676Z,0.80
2019-03-15T12:22:55.556Z,0.70
2019-03-15T12:29:40.658Z,0.80
2019-03-15T12:36:25.517Z,1.00
2019-03-15T12:43:10.411Z,0.80
2019-03-15T12:49:55.324Z,0.90
2019-03-15T12:56:53.263Z,0.57
2019-03-15T13:03:27.802Z,0.87
2019-03-15T13:10:23.461Z,0.60
2019-03-15T13:17:08.661Z,0.97
2019-03-15T13:23:53.630Z,0.73
2019-03-15T13:30:38.755Z,0.70
2019-03-15T13:37:24.272Z,0.70
2019-03-15T13:44:09.205Z,0.73
2019-03-15T13:50:54.329Z,0.73
2019-03-15T13:57:39.799Z,0.60
2019-03-15T14:04:25.148Z,0.53
2019-03-15T14:11:11.356Z,0.80
2019-03-15T14:17:59.983Z,0.90
2019-03-15T14:24:44.906Z,0.67
2019-03-15T14:31:29.767Z,0.40
2019-03-15T14:38:14.631Z,0.57
2019-03-15T14:44:59.701Z,0.70
2019-03-15T14:51:44.619Z,0.40
2019-03-15T14:58:29.549Z,0.50
2019-03-15T15:05:14.549Z,0.73
2019-03-15T15:11:59.557Z,0.60
2019-03-15T15:18:44.448Z,0.40
2019-03-15T15:25:29.551Z,0.57
2019-03-15T15:32:14.492Z,0.40
2019-03-15T15:38:59.482Z,1.20
2019-03-15T15:45:44.338Z,0.90
2019-03-15T15:52:29.275Z,2.10
2019-03-15T15:59:14.207Z,0.60
2019-03-15T16:05:59.063Z,0.40
2019-03-15T16:12:43.993Z,1.00
2019-03-15T16:19:28.936Z,0.77
2019-03-15T16:26:13.859Z,0.67
2019-03-15T16:32:58.715Z,1.00
2019-03-15T16:39:43.662Z,0.93
2019-03-15T16:46:28.603Z,0.93
2019-03-15T16:53:13.530Z,0.53
2019-03-15T17:00:00.375Z,0.60
2019-03-15T17:06:46.094Z,0.90
2019-03-15T17:13:31.091Z,1.47
2019-03-15T17:20:16.034Z,0.85
2019-03-15T17:27:00.978Z,0.87
2019-03-15T17:33:45.960Z,0.53
2019-03-15T17:40:31.016Z,0.70
2019-03-15T17:47:15.962Z,1.73
2019-03-15T17:54:00.828Z,1.00
2019-03-15T18:00:49.092Z,0.70
2019-03-15T18:07:34.023Z,0.80
2019-03-15T18:14:18.955Z,1.10
2019-03-15T18:21:04.048Z,0.70
2019-03-15T18:27:50.604Z,1.20
2019-03-15T18:34:35.539Z,0.40
2019-03-15T18:41:20.395Z,0.97
2019-03-15T18:48:05.318Z,0.83
2019-03-15T18:54:50.175Z,0.60
2019-03-15T19:01:35.099Z,0.70
2019-03-15T19:08:21.102Z,0.98
2019-03-15T19:15:11.711Z,0.70
2019-03-15T19:21:57.720Z,0.57
2019-03-15T19:28:42.799Z,0.90
2019-03-15T19:35:28.344Z,0.80
2019-03-15T19:42:14.384Z,0.50
2019-03-15T19:48:59.535Z,0.70
2019-03-15T19:55:44.534Z,0.63
2019-03-15T20:02:29.393Z,0.70
2019-03-15T20:09:15.321Z,0.70
2019-03-15T20:16:00.354Z,0.90
2019-03-15T20:22:45.268Z,0.70
2019-03-15T20:29:30.194Z,1.10
2019-03-15T20:36:15.417Z,1.00
2019-03-15T20:43:00.417Z,0.90
2019-03-15T20:49:45.271Z,0.83
2019-03-15T20:56:30.267Z,0.90
2019-03-15T21:03:15.300Z,1.47
2019-03-15T21:10:00.385Z,4.60
2019-03-15T21:16:45.456Z,3.20
2019-03-15T21:23:30.312Z,1.07
2019-03-15T21:30:16.878Z,0.70
2019-03-15T21:37:01.735Z,0.70
2019-03-15T21:43:47.122Z,0.80
2019-03-15T21:50:32.680Z,1.33
2019-03-15T21:57:17.830Z,0.90
2019-03-15T22:04:02.690Z,0.90
2019-03-15T22:10:47.593Z,0.87
2019-03-15T22:17:33.078Z,1.43
2019-03-15T22:24:18.585Z,1.07
2019-03-15T22:31:16.053Z,0.87
2019-03-15T22:37:50.180Z,1.47
2019-03-15T22:44:35.050Z,0.70
2019-03-15T22:51:20.620Z,0.80
2019-03-15T22:58:05.580Z,1.33
2019-03-15T23:04:50.526Z,2.03
2019-03-15T23:11:36.522Z,1.13
2019-03-15T23:18:21.712Z,2.70
2019-03-15T23:25:07.689Z,0.90
2019-03-15T23:31:52.622Z,2.57
2019-03-15T23:38:37.653Z,1.47
2019-03-15T23:45:22.924Z,0.63
2019-03-15T23:52:07.771Z,0.70
2019-03-15T23:58:52.803Z,0.60
